9NEVS VNLK-VNLK
Flight info
| Callsign | 9NEVS |
|---|---|
| Flight time | 0h 31m |
| Altitude | 25000 |
| Route | VFR LOCAL EVEREST |
| Aircraft | PC6T/L-SDFGR/C |
Departure
| Time | 2025-08-25 00:56 |
|---|---|
| Airport | Tenzing-Hillary Airport (VNLK) |
Arrival
| Time | 2025-08-25 01:27 |
|---|---|
| Airport | Tenzing-Hillary Airport (VNLK) |
| Time | Latitude | Longitude | Altitude | Speed | Heading |
|---|---|---|---|---|---|
| 2025-08-25 00:47 | 27.68750 | 86.73201 | 9403 ft | 0 kts | 267° |
| 2025-08-25 00:53 | 27.68793 | 86.73188 | 9402 ft | 5 kts | 11° |
| 2025-08-25 00:54 | 27.68800 | 86.73182 | 9402 ft | 0 kts | 242° |
| 2025-08-25 00:54 | 27.68798 | 86.73177 | 9402 ft | 12 kts | 242° |
| 2025-08-25 00:55 | 27.68243 | 86.72031 | 9415 ft | 116 kts | 255° |
| 2025-08-25 00:56 | 27.69753 | 86.70508 | 10433 ft | 121 kts | 5° |
| 2025-08-25 00:56 | 27.71439 | 86.70725 | 11163 ft | 123 kts | 9° |
| 2025-08-25 00:57 | 27.73139 | 86.70979 | 11886 ft | 124 kts | 8° |
| 2025-08-25 00:57 | 27.74003 | 86.71087 | 12252 ft | 125 kts | 7° |
| 2025-08-25 00:57 | 27.75721 | 86.71402 | 12982 ft | 126 kts | 14° |
| 2025-08-25 00:58 | 27.77496 | 86.71880 | 13243 ft | 134 kts | 14° |
| 2025-08-25 00:58 | 27.79248 | 86.72339 | 13147 ft | 120 kts | 12° |
| 2025-08-25 00:59 | 27.80400 | 86.72045 | 12543 ft | 97 kts | 321° |
| 2025-08-25 00:59 | 27.80997 | 86.71396 | 12181 ft | 95 kts | 315° |
| 2025-08-25 01:00 | 27.81099 | 86.71280 | 12171 ft | 86 kts | 311° |
| 2025-08-25 01:00 | 27.81241 | 86.71082 | 12206 ft | 0 kts | 313° |
| 2025-08-25 01:02 | 27.81269 | 86.71055 | 12218 ft | 0 kts | 124° |
| 2025-08-25 01:03 | 27.80761 | 86.71594 | 12214 ft | 101 kts | 136° |
| 2025-08-25 01:04 | 27.80590 | 86.71776 | 12248 ft | 111 kts | 135° |
| 2025-08-25 01:04 | 27.80462 | 86.73347 | 13097 ft | 111 kts | 53° |
| 2025-08-25 01:05 | 27.81757 | 86.74443 | 13898 ft | 121 kts | 35° |
| 2025-08-25 01:05 | 27.83161 | 86.75515 | 14665 ft | 124 kts | 36° |
| 2025-08-25 01:06 | 27.84402 | 86.76867 | 15500 ft | 125 kts | 52° |
| 2025-08-25 01:06 | 27.85405 | 86.78490 | 16555 ft | 126 kts | 55° |
| 2025-08-25 01:07 | 27.86405 | 86.80132 | 17209 ft | 128 kts | 56° |
| 2025-08-25 01:07 | 27.86910 | 86.80988 | 17480 ft | 130 kts | 57° |
| 2025-08-25 01:08 | 27.88334 | 86.83629 | 18648 ft | 133 kts | 62° |
| 2025-08-25 01:08 | 27.89189 | 86.85495 | 19360 ft | 134 kts | 66° |
| 2025-08-25 01:09 | 27.89977 | 86.87420 | 20087 ft | 135 kts | 67° |
| 2025-08-25 01:09 | 27.90700 | 86.89382 | 20769 ft | 137 kts | 72° |
| 2025-08-25 01:10 | 27.91256 | 86.91434 | 21438 ft | 138 kts | 77° |
| 2025-08-25 01:10 | 27.91706 | 86.93531 | 22030 ft | 139 kts | 78° |
| 2025-08-25 01:11 | 27.92193 | 86.95665 | 22732 ft | 139 kts | 77° |
| 2025-08-25 01:11 | 27.92453 | 86.96722 | 23017 ft | 141 kts | 75° |
| 2025-08-25 01:12 | 27.93862 | 86.99670 | 23802 ft | 145 kts | 50° |
| 2025-08-25 01:12 | 27.95727 | 87.00659 | 24278 ft | 149 kts | 9° |
| 2025-08-25 01:13 | 27.97821 | 87.00059 | 24467 ft | 169 kts | 333° |
| 2025-08-25 01:13 | 27.99792 | 86.98554 | 24665 ft | 174 kts | 321° |
| 2025-08-25 01:14 | 28.01419 | 86.96533 | 24830 ft | 176 kts | 299° |
| 2025-08-25 01:14 | 28.01848 | 86.95229 | 24910 ft | 177 kts | 282° |
| 2025-08-25 01:14 | 28.01925 | 86.92484 | 25052 ft | 177 kts | 259° |
| 2025-08-25 01:16 | 27.96725 | 86.84913 | 24708 ft | 184 kts | 211° |
| 2025-08-25 01:17 | 27.94514 | 86.83461 | 24132 ft | 183 kts | 205° |
| 2025-08-25 01:17 | 27.92300 | 86.82100 | 23604 ft | 179 kts | 206° |
| 2025-08-25 01:17 | 27.91193 | 86.81470 | 23254 ft | 177 kts | 202° |
| 2025-08-25 01:18 | 27.88957 | 86.80312 | 22557 ft | 176 kts | 201° |
| 2025-08-25 01:18 | 27.86754 | 86.79228 | 21927 ft | 165 kts | 206° |
| 2025-08-25 01:19 | 27.84848 | 86.77679 | 20636 ft | 168 kts | 218° |
| 2025-08-25 01:20 | 27.82187 | 86.75187 | 18762 ft | 164 kts | 217° |
| 2025-08-25 01:20 | 27.80411 | 86.73623 | 17451 ft | 160 kts | 215° |
| 2025-08-25 01:21 | 27.78642 | 86.72135 | 16247 ft | 156 kts | 216° |
| 2025-08-25 01:21 | 27.77770 | 86.71424 | 15794 ft | 155 kts | 212° |
| 2025-08-25 01:21 | 27.75842 | 86.70379 | 14366 ft | 152 kts | 198° |
| 2025-08-25 01:22 | 27.73809 | 86.69875 | 13127 ft | 150 kts | 186° |
| 2025-08-25 01:22 | 27.71759 | 86.69865 | 11977 ft | 146 kts | 173° |
| 2025-08-25 01:23 | 27.69798 | 86.70270 | 10907 ft | 143 kts | 167° |
| 2025-08-25 01:24 | 27.68016 | 86.71145 | 9964 ft | 105 kts | 105° |
| 2025-08-25 01:24 | 27.68294 | 86.72211 | 9115 ft | 89 kts | 62° |
| 2025-08-25 01:25 | 27.68431 | 86.72481 | 9112 ft | 83 kts | 58° |
| 2025-08-25 01:25 | 27.68562 | 86.72726 | 9181 ft | 81 kts | 58° |
| 2025-08-25 01:26 | 27.68644 | 86.72877 | 9257 ft | 70 kts | 58° |
| 2025-08-25 01:26 | 27.68770 | 86.73120 | 9392 ft | 19 kts | 56° |
| 2025-08-25 01:27 | 27.68775 | 86.73195 | 9391 ft | 0 kts | 308° |
| 2025-08-25 01:28 | 27.68774 | 86.73186 | 9392 ft | 0 kts | 239° |